D/T METAR WX W/DIR W/SPE G/SPE TEMP DEWP
8/12/19 00:50 EGPH 080050Z 25026G44KT 9999 -RA BKN012 SCT024 11/09 Q0982 RERA -RA WSW (250°) 29.9mph 50.6mph 11°C 9°C
8/12/19 00:20 EGPH 080020Z 22022KT 4000 RA FEW010 BKN021 11/10 Q0981 RERA RA SW (220°) 25.3mph 11°C 10°C
7/12/19 23:50 EGPH 072350Z 22024KT 7000 RA SCT035 BKN045 11/10 Q0982 RA SW (220°) 27.6mph 11°C 10°C
7/12/19 23:20 EGPH 072320Z 22024KT 9999 -RA SCT047 11/09 Q0983 -RA SW (220°) 27.6mph 11°C 9°C
7/12/19 22:50 EGPH 072250Z 21027KT 8000 -RA SCT043 11/09 Q0983 -RA SSW (210°) 31.1mph 11°C 9°C
7/12/19 22:20 EGPH 072220Z 21026G38KT 8000 -RA SCT043 11/09 Q0984 -RA SSW (210°) 29.9mph 43.7mph 11°C 9°C
7/12/19 21:50 EGPH 072150Z 21023G36KT 8000 -RA SCT043 11/09 Q0985 -RA SSW (210°) 26.5mph 41.4mph 11°C 9°C
7/12/19 21:20 EGPH 072120Z 21023G34KT 9999 -RA FEW043 11/09 Q0986 -RA SSW (210°) 26.5mph 39.1mph 11°C 9°C
7/12/19 20:50 EGPH 072050Z 21021G34KT 9999 -RA NSC 11/09 Q0987 -RA SSW (210°) 24.2mph 39.1mph 11°C 9°C
7/12/19 20:20 EGPH 072020Z 21021G32KT 9999 -RA NSC 11/10 Q0989 -RA SSW (210°) 24.2mph 36.8mph 11°C 10°C
7/12/19 19:50 EGPH 071950Z 21021G31KT 9999 -RA NSC 11/10 Q0990 -RA SSW (210°) 24.2mph 35.7mph 11°C 10°C
7/12/19 19:20 EGPH 071920Z 22020KT 9999 -RA NSC 11/10 Q0992 -RA SW (220°) 23.0mph 11°C 10°C
7/12/19 18:50 EGPH 071850Z 22017KT 9999 -RA NSC 11/09 Q0993 -RA SW (220°) 19.6mph 11°C 9°C
7/12/19 18:20 EGPH 071820Z 22018KT 9999 NSC 11/09 Q0994 SW (220°) 20.7mph 11°C 9°C
7/12/19 17:50 EGPH 071750Z 22018KT 9999 -RA NSC 11/09 Q0994 -RA SW (220°) 20.7mph 11°C 9°C
7/12/19 17:20 EGPH 071720Z 23014KT 9999 -RA FEW020 10/09 Q0995 -RA SW (230°) 16.1mph 10°C 9°C
7/12/19 16:50 EGPH 071650Z 22013G24KT 180V250 9999 -RA FEW020 10/09 Q0996 -RA SW (220°) 15.0mph 27.6mph 10°C 9°C
7/12/19 16:20 EGPH 071620Z 22011KT 9999 -RA FEW018 SCT046 10/09 Q0997 -RA SW (220°) 12.7mph 10°C 9°C
7/12/19 15:50 EGPH 071550Z 22013KT 9000 -RA SCT020 10/09 Q0998 -RA SW (220°) 15.0mph 10°C 9°C
7/12/19 15:20 EGPH 071520Z 22014KT 9999 -RA FEW022 10/09 Q0998 -RA SW (220°) 16.1mph 10°C 9°C
7/12/19 14:50 EGPH 071450Z 22016KT 9999 -RA FEW021 09/09 Q0998 -RA SW (220°) 18.4mph 9°C 9°C
7/12/19 14:20 EGPH 071420Z 22014KT 9000 -RA FEW016 SCT038 09/08 Q0999 -RA SW (220°) 16.1mph 9°C 8°C
7/12/19 13:50 EGPH 071350Z 22015KT 9999 7000NW -RA BKN018 BKN037 09/08 Q1000 -RA SW (220°) 17.3mph 9°C 8°C
7/12/19 13:20 EGPH 071320Z 22013KT 9999 SCT015 BKN032 09/08 Q1001 SW (220°) 15.0mph 9°C 8°C
7/12/19 12:50 EGPH 071250Z 21013KT 9999 SCT015 BKN034 10/08 Q1001 SSW (210°) 15.0mph 10°C 8°C
7/12/19 12:20 EGPH 071220Z 23013KT 9999 SCT013 BKN031 09/08 Q1002 SW (230°) 15.0mph 9°C 8°C
7/12/19 11:50 EGPH 071150Z 23016KT 9999 BKN015 09/08 Q1003 SW (230°) 18.4mph 9°C 8°C
7/12/19 11:20 EGPH 071120Z 22013KT 9999 BKN016 09/08 Q1003 SW (220°) 15.0mph 9°C 8°C
7/12/19 10:50 EGPH 071050Z 24014KT 9999 OVC014 09/08 Q1004 WSW (240°) 16.1mph 9°C 8°C
7/12/19 10:20 EGPH 071020Z 24011KT 9999 BKN013 09/08 Q1004 WSW (240°) 12.7mph 9°C 8°C
7/12/19 09:50 EGPH 070950Z 24010KT 9999 8000NW VCSH BKN013 OVC023 09/08 Q1004 VCSH WSW (240°) 11.5mph 9°C 8°C
7/12/19 09:20 EGPH 070920Z 23011KT 9999 8000W VCSH SCT015 08/07 Q1004 VCSH SW (230°) 12.7mph 8°C 7°C
7/12/19 08:20 EGPH 070820Z 27004KT 230V330 9999 SCT013 08/07 Q1004 W (270°) 4.6mph 8°C 7°C
7/12/19 07:50 EGPH 070750Z 25009KT 9999 SCT015 08/07 Q1004 WSW (250°) 10.4mph 8°C 7°C
7/12/19 07:20 EGPH 070720Z 24011KT 9999 SCT013 07/07 Q1004 WSW (240°) 12.7mph 7°C 7°C
7/12/19 06:50 EGPH 070650Z 25008KT 9999 SCT013 SCT028 08/07 Q1004 WSW (250°) 9.2mph 8°C 7°C
7/12/19 06:20 EGPH 070620Z 25010KT 9999 FEW014 BKN041 08/07 Q1004 WSW (250°) 11.5mph 8°C 7°C
7/12/19 05:20 EGPH 070520Z 25009KT 9999 BKN047 08/07 Q1004 WSW (250°) 10.4mph 8°C 7°C
7/12/19 04:20 EGPH 070420Z 25007KT 9999 -RA SCT011 08/07 Q1003 -RA WSW (250°) 8.1mph 8°C 7°C
7/12/19 03:50 EGPH 070350Z 25009KT 9999 SCT025 08/07 Q1003 WSW (250°) 10.4mph 8°C 7°C
7/12/19 03:20 EGPH 070320Z 25009KT 9999 FEW011 08/07 Q1003 WSW (250°) 10.4mph 8°C 7°C
7/12/19 02:50 EGPH 070250Z 25010KT 9999 SCT012 08/07 Q1003 WSW (250°) 11.5mph 8°C 7°C
7/12/19 02:20 EGPH 070220Z 24012KT 9999 FEW005 BKN034 08/07 Q1002 WSW (240°) 13.8mph 8°C 7°C
7/12/19 01:50 EGPH 070150Z 25012KT 9999 FEW011 BKN037 08/07 Q1002 WSW (250°) 13.8mph 8°C 7°C
7/12/19 01:20 EGPH 070120Z 24008KT 9999 FEW012 06/06 Q1002 WSW (240°) 9.2mph 6°C 6°C
7/12/19 00:50 EGPH 070050Z 24008KT 9999 SCT030 06/06 Q1002 WSW (240°) 9.2mph 6°C 6°C
6/12/19 23:50 EGPH 062350Z 25009KT 9999 BKN027 08/07 Q1001 WSW (250°) 10.4mph 8°C 7°C
6/12/19 23:20 EGPH 062320Z 25010KT 9999 SCT037 08/07 Q1001 WSW (250°) 11.5mph 8°C 7°C